Southern Sonoma County Latest

20 Stations

15 Minute Data
as of 9/3/26 9:11 PM PDT
Station Date Time Temp (°F) RH (%) Dew Pt (°F) Wind Spd (mph) Wind Dir (°) Wind Gust (mph) Latest Rain (In) Daily Rain (In) Daily Min Temp (°F) Daily Max Temp (°F)
Upper Rincon Valley 9/3/26 2100 57.6   1.8 96   6 56.5   3.4 0.7   0.5 SW | 232 2.1   0.9 0.00 0.00 55.3   0.1 66.9   5.2
Lower Bennett Valley 9/3/26 2100 59.7   0.4 94   6 57.8   2.2 0.9   0.8 WSW | 248 2.5   2.1 0.00 0.33 55.2   2.7 66.2   7.3
Kenwood (Wildwood) 9/3/26 2100 59.5   0.7 95   12 58.0   3.1 0.8   2.0 N | 360 1.9   3.0 0.00 0.15 56.0   3.2 67.7   7.2
Crane Creek (Ranch 62) 9/3/26 2100 60.5   1.4 95   11 59.1   4.8 0.0   0.0 NE | 43 0.1   0.1 0.00 0.27 59.7   2.5 68.5   8.8
Rohnert Park-West (Stony Point) 9/3/26 2100 60.7   0.1 94   4 58.9   1.3 4.2   4.2 WSW | 244 9.3   9.3 0.00 0.14 60.0   5.3 68.7   3.8
Rice-Spivak Vineyard 9/3/26 2100 60.2   0.8 - - - - - - - 60.2   8.8 69.4   4.0
Cartograph Wines Base 9/3/26 2100 59.5   0.8 96   3 58.3   0.0 4.0   2.5 SW | 224 7.6   4.2 0.00 0.13 59.5   4.1 68.3   2.9
Cartograph Wines Remote 9/3/26 2100 60.2   0.0 - - - - - - - 60.2   5.5 69.5   1.3
Penngrove (Asellus) 9/3/26 2100 60.6   0.6 92   6 58.2   2.4 0.7   2.1 NW | 314 2.7   1.5 0.00 0.23 57.4   3.2 68.7   6.1
Sonoma Valley (Bedrock) 9/3/26 2100 58.9   1.4 93   17 56.9   4.2 - - - 0.00 0.20 54.6   2.0 65.7   8.5
Sonoma-West (Arnold) 9/3/26 2100 61.3   1.0 89   16 58.1   4.3 0.0   4.3 N | 0 0.0   8.1 0.00 0.27 56.1   3.4 67.6   9.5
Sonoma Valley HS 9/3/26 2100 60.4   1.8 100   18 60.2   3.9 0.6   1.1 SW | 228 2.0   1.8 0.00 0.00 55.6   1.1 66.4   10.1
Sonoma East (Bundschu01) 9/3/26 2100 61.1   0.9 92   16 58.8   4.4 0.4   3.9 NNE | 12 2.2   6.1 0.00 0.17 51.3   0.2 68.6   7.5
Sonoma-SE (Napoli) 9/3/26 2100 60.6   1.4 92   16 58.4   3.7 0.0   3.5 WNW | 285 1.7   5.4 0.00 0.17 52.2   1.2 69.2   9.9
Schellville (Sasaki) 2/7/26 1900 53.4   2.2 88   10 49.9   1.0 3.3   1.8 SW | 225 5.8   4.0 0.00 0.00 47.0   0.8 62.8   8.4
Petaluma (Ranch 10) 9/3/26 2100 61.2   0.2 92   8 58.7   2.6 1.3   1.0 WNW | 289 5.0   0.7 0.00 0.06 57.9   6.2 68.2   8.0
Carneros (Ranch 71) 9/3/26 2100 59.4   1.5 94   12 57.8   2.5 5.3   4.4 W | 275 7.5   6.9 0.00 0.06 57.4   0.5 67.9   6.9
Ricci Vineyards (Carneros) 9/3/26 2100 60.2   1.5 92   12 57.8   2.4 3.1   5.6 NW | 313 5.3   8.6 0.00 0.08 54.1   2.1 69.1   8.1
Carneros Upper (Ranch 81) 9/3/26 2100 59.6   1.4 90   9 56.5   1.4 7.0   8.2 W | 263 11.7   11.0 - - 57.1   0.3 67.4   8.6
Carneros Lower (Ranch 81) 9/3/26 2100 59.7   1.9 0   80 -58.0   113.6 0.1   1.1 SSW | 202 1.8   3.2 0.00 0.00 53.7   1.7 68.4   11.8
Max     61.3 100 60.2 7.0 - 11.7 0.00 0.33 60.2 69.5
Avg     60.0 88 51.3 1.8 - 4.0 0.00 - - -
Min     57.6 0 -58.0 0.0 - 0.0 0.00 0.00 51.3 65.7